• Join FlightAware (Why Join?)
  • Login
  • US Flag 
02:42AM EST


 

Airport Tracker/Info


-or-


 

Live Flight TrackerFlight Track Log ✈ THY2854 ✈ 13-Jul-2013 ✈ LTBA / IST - LTAP / MZH

Flight Track Log - Related Links

Times and Time Zones

All times are in EDT time to prevent confusion due to time zone crossing. See the THY2854 flight status page for this flight to view local times or setup timezone preferences in your user account.

Time Position Orientation Groundspeed Altitude Reporting Facility
EDT Latitude Longitude Course Direction KTS MPH feet Rate Location/Type
04:41PM 40.9795 29.4169 89° East  Level Estimated
04:42PM 40.9797 29.5658 90° East  Level Estimated
04:43PM 40.9796 29.7148 90° East  Level Estimated
04:44PM 40.9794 29.8637 90° East  Level Estimated
04:45PM 40.9790 30.0127 90° East  Level Estimated
04:46PM 40.9784 30.1616 90° East  Level Estimated
04:47PM 40.9776 30.3106 90° East  Level Estimated
04:48PM 40.9767 30.4595 90° East  Level Estimated
04:49PM 40.9755 30.6084 91° East  Level Estimated
04:50PM 40.9741 30.7574 91° East  Level Estimated
04:51PM 40.9726 30.9063 91° East  Level Estimated
04:52PM 40.9708 31.0552 91° East  Level Estimated
04:53PM 40.9689 31.2041 91° East  Level Estimated
04:54PM 40.9668 31.3530 91° East  Level Estimated
04:55PM 40.9644 31.5019 91° East  Level Estimated
04:56PM 40.9619 31.6508 91° East  Level Estimated
04:57PM 40.9592 31.7997 91° East  Level Estimated
04:58PM 40.9563 31.9485 91° East  Level Estimated
04:59PM 40.9532 32.0973 92° East  Level Estimated
05:00PM 40.9500 32.2462 92° East  Level Estimated
05:01PM 40.9465 32.3950 92° East  Level Estimated
05:02PM 40.9428 32.5438 92° East  Level Estimated
05:03PM 40.9390 32.6925 92° East  Level Estimated
05:04PM 40.9349 32.8413 92° East  Level Estimated
05:05PM 40.9307 32.9900 92° East  Level Estimated
05:06PM 40.9263 33.1388 92° East  Level Estimated
05:07PM 40.9217 33.2875 92° East  Level Estimated
05:08PM 40.9169 33.4361 92° East  Level Estimated
05:09PM 40.9118 33.5848 92° East  Level Estimated
05:10PM 40.9067 33.7334 93° East  Level Estimated
05:11PM 40.9013 33.8820 93° East  Level Estimated
05:12PM 40.8957 34.0306 93° East  Level Estimated
05:13PM 40.8899 34.1792 93° East  Level Estimated
05:14PM 40.8840 34.3277 93° East  Level Estimated
05:15PM 40.8779 34.4762 93° East  Level Estimated
05:16PM 40.8715 34.6247 93° East  Level Estimated
05:17PM 40.8650 34.7732 93° East  Level Estimated
05:18PM 40.8583 34.9216 93° East  Level Estimated
05:19PM 40.8514 35.0700 93° East  Level Estimated
05:20PM 40.8443 35.2183 94° East  Level Estimated
05:21PM 40.8370 35.3666 94° East  Level Estimated
05:22PM 40.8295 35.5149 94° East  Level Estimated
05:23PM 40.8292 35.5219 94° East  Level Estimated
05:24PM 40.8292 35.5219 135° Southeast  Level Estimated
05:25PM 40.8292 35.5219 135° Southeast  Level Estimated
05:26PM 40.8292 35.5219 135° Southeast  Level Estimated
05:27PM 40.8292 35.5219 135° Southeast  Level Estimated
05:28PM 40.8292 35.5219 135° Southeast  Level Estimated
05:29PM 40.8292 35.5219 135° Southeast  Level Estimated
05:30PM 40.8292 35.5219 135° Southeast  Level Estimated
05:31PM 40.8292 35.5219 135° Southeast  Level Estimated
05:32PM 40.8292 35.5219 135° Southeast  Level Estimated
05:33PM 40.8292 35.5219 135° Southeast  Level Estimated
05:34PM 40.8292 35.5219 135° Southeast  Level Estimated
05:35PM 40.8292 35.5219 135° Southeast  Level Estimated
05:36PM 40.8292 35.5219 135° Southeast  Level Estimated
05:37PM 40.8292 35.5219 135° Southeast  Level Estimated
05:38PM 40.8292 35.5219 135° Southeast  Level Estimated